Terminal Aerodrome Forecast
Issued by NWS

Home | Current Version | Previous Version | Graphics & Text | Print | Product List | Glossary On
Versions: 1 2 3 4 5 6 7 8 9 10 11 12 13 14 15 16 17 18
000
FTUS43 KICT 041125
TAFCNU
TAF
KCNU 041125Z 0412/0512 01017G27KT 5SM -SN BR OVC030
      TEMPO 0412/0416 4SM -SNPL BR OVC020
     FM041900 02017G24KT P6SM SCT020 BKN040
     FM042300 01008KT P6SM SCT030 BKN070
     FM050300 02007KT P6SM SCT120=

USA.gov is the U.S. government's official web portal to all federal, state and local government web resources and services.